createdAt,value
2016-05-12T00:00:45.776Z,18.37
2016-05-12T00:01:48.388Z,18.41
2016-05-12T00:02:42.547Z,18.28
2016-05-12T00:03:59.534Z,18.39
2016-05-12T00:04:48.396Z,18.27
2016-05-12T00:05:42.524Z,18.34
2016-05-12T00:06:42.494Z,18.42
2016-05-12T00:07:45.232Z,18.3
2016-05-12T00:08:42.438Z,18.34
2016-05-12T00:09:42.331Z,18.37
2016-05-12T00:10:47.975Z,18.37
2016-05-12T00:11:42.055Z,18.3
2016-05-12T00:12:42.215Z,18.34
2016-05-12T00:13:47.858Z,18.26
2016-05-12T00:14:44.938Z,18.33
2016-05-12T00:15:41.894Z,18.34
2016-05-12T00:16:44.834Z,18.41
2016-05-12T00:17:41.806Z,18.39
2016-05-12T00:18:44.762Z,18.42
2016-05-12T00:19:41.702Z,18.41
2016-05-12T00:20:44.642Z,18.34
2016-05-12T00:21:44.645Z,18.41
2016-05-12T00:22:41.412Z,18.34
2016-05-12T00:23:41.510Z,18.37
2016-05-12T00:24:41.451Z,18.39
2016-05-12T00:25:44.421Z,18.39
2016-05-12T00:26:41.377Z,18.37
2016-05-12T00:27:41.301Z,18.27
2016-05-12T00:28:41.272Z,18.33
2016-05-12T00:29:41.228Z,18.3
2016-05-12T00:30:47.419Z,18.28
2016-05-12T00:31:41.187Z,18.37
2016-05-12T00:32:50.112Z,18.31
2016-05-12T00:33:44.052Z,18.34
2016-05-12T00:34:44.008Z,18.33
2016-05-12T00:35:40.964Z,18.28
2016-05-12T00:36:40.935Z,18.36
2016-05-12T00:37:40.750Z,18.27
2016-05-12T00:38:43.847Z,18.23
2016-05-12T00:39:43.788Z,18.26
2016-05-12T00:40:43.743Z,18.3
2016-05-12T00:41:40.886Z,18.24
2016-05-12T00:42:46.357Z,18.23
2016-05-12T00:43:40.594Z,18.24
2016-05-12T00:44:40.378Z,18.21
2016-05-12T00:45:40.349Z,18.19
2016-05-12T00:46:40.307Z,18.23
2016-05-12T00:47:46.449Z,18.24
2016-05-12T00:48:43.374Z,18.24
2016-05-12T00:49:43.345Z,18.27
2016-05-12T00:50:46.301Z,18.18
2016-05-12T00:51:46.240Z,18.15
2016-05-12T00:52:46.040Z,18.16
2016-05-12T00:53:43.137Z,18.15
2016-05-12T00:54:43.140Z,18.26
2016-05-12T00:55:42.923Z,18.12
2016-05-12T00:56:43.051Z,18.09
2016-05-12T00:57:45.992Z,18.13
2016-05-12T00:58:39.776Z,18.05
2016-05-12T00:59:42.872Z,18.08
2016-05-12T01:00:42.811Z,18.11
2016-05-12T01:01:46.097Z,18.06
2016-05-12T01:02:45.740Z,18.05
2016-05-12T01:03:51.680Z,18.11
2016-05-12T01:04:42.635Z,18.06
2016-05-12T01:05:39.607Z,18.05
2016-05-12T01:06:39.531Z,18.08
2016-05-12T01:07:39.519Z,18
2016-05-12T01:08:42.459Z,18.06
2016-05-12T01:09:39.243Z,18.03
2016-05-12T01:10:42.386Z,18
2016-05-12T01:11:42.310Z,18.02
2016-05-12T01:12:39.251Z,18
2016-05-12T01:13:39.597Z,18.02
2016-05-12T01:14:39.053Z,18
2016-05-12T01:15:45.119Z,17.94
2016-05-12T01:16:42.090Z,17.93
2016-05-12T01:17:41.889Z,18
2016-05-12T01:18:38.985Z,17.91
2016-05-12T01:19:38.926Z,17.97
2016-05-12T01:20:41.897Z,17.93
2016-05-12T01:21:39.213Z,17.93
2016-05-12T01:22:38.809Z,17.91
2016-05-12T01:23:41.781Z,17.94
2016-05-12T01:24:38.565Z,17.88
2016-05-12T01:25:41.676Z,17.9
2016-05-12T01:26:38.679Z,17.88
2016-05-12T01:27:38.666Z,17.82
2016-05-12T01:28:38.544Z,17.9
2016-05-12T01:29:38.484Z,17.82
2016-05-12T01:30:38.675Z,17.82
2016-05-12T01:31:41.427Z,17.75
2016-05-12T01:32:41.414Z,17.76
2016-05-12T01:33:38.307Z,17.84
2016-05-12T01:34:49.981Z,17.78
2016-05-12T01:35:41.219Z,17.82
2016-05-12T01:36:44.003Z,17.82
2016-05-12T01:37:44.350Z,17.75
2016-05-12T01:38:38.117Z,17.76
2016-05-12T01:39:38.074Z,17.72
2016-05-12T01:40:37.997Z,17.76
2016-05-12T01:41:40.939Z,17.76
2016-05-12T01:42:43.894Z,17.73
2016-05-12T01:43:46.880Z,17.68
2016-05-12T01:44:37.821Z,17.65
2016-05-12T01:45:46.777Z,17.66
2016-05-12T01:46:43.889Z,17.68
2016-05-12T01:47:40.657Z,17.6
2016-05-12T01:48:37.629Z,17.6
2016-05-12T01:49:40.772Z,17.68
2016-05-12T01:50:37.368Z,17.66
2016-05-12T01:51:37.481Z,17.6
2016-05-12T01:52:37.280Z,17.53
2016-05-12T01:53:43.407Z,17.6
2016-05-12T01:54:37.348Z,17.57
2016-05-12T01:55:40.601Z,17.65
2016-05-12T01:56:37.073Z,17.66
2016-05-12T01:57:40.231Z,17.53
2016-05-12T01:58:37.156Z,17.56
2016-05-12T01:59:37.112Z,17.52
2016-05-12T02:00:40.098Z,17.56
2016-05-12T02:01:36.928Z,17.5
2016-05-12T02:02:36.806Z,17.47
2016-05-12T02:03:42.951Z,17.41
2016-05-12T02:04:36.719Z,17.39
2016-05-12T02:05:36.846Z,17.37
2016-05-12T02:06:36.771Z,17.37
2016-05-12T02:07:39.727Z,17.39
2016-05-12T02:08:39.527Z,17.37
2016-05-12T02:09:36.544Z,17.42
2016-05-12T02:10:36.610Z,17.35
2016-05-12T02:11:36.566Z,17.37
2016-05-12T02:12:36.521Z,17.24
2016-05-12T02:13:39.305Z,17.31
2016-05-12T02:14:36.418Z,17.32
2016-05-12T02:15:36.373Z,17.27
2016-05-12T02:16:36.439Z,17.28
2016-05-12T02:17:36.441Z,17.3
2016-05-12T02:18:39.224Z,17.2
2016-05-12T02:19:39.182Z,17.28
2016-05-12T02:20:36.137Z,17.32
2016-05-12T02:21:39.124Z,17.19
2016-05-12T02:22:36.048Z,17.23
2016-05-12T02:23:39.238Z,17.24
2016-05-12T02:24:36.007Z,17.23
2016-05-12T02:25:38.916Z,17.2
2016-05-12T02:26:35.588Z,17.2
2016-05-12T02:27:39.031Z,17.14
2016-05-12T02:28:36.283Z,17.1
2016-05-12T02:29:35.548Z,17.07
2016-05-12T02:30:35.676Z,17.12
2016-05-12T02:31:35.632Z,17.12
2016-05-12T02:32:38.435Z,17.12
2016-05-12T02:33:38.734Z,17.1
2016-05-12T02:34:35.828Z,17.07
2016-05-12T02:35:38.459Z,17.01
2016-05-12T02:36:35.428Z,17.05
2016-05-12T02:37:35.555Z,17.16
2016-05-12T02:38:44.451Z,17.09
2016-05-12T02:39:38.203Z,17.1
2016-05-12T02:40:35.406Z,17.04
2016-05-12T02:41:35.159Z,17.12
2016-05-12T02:42:35.194Z,17.17
2016-05-12T02:43:35.071Z,17.05
2016-05-12T02:44:35.027Z,17.1
2016-05-12T02:45:34.810Z,17.16
2016-05-12T02:46:35.001Z,17.04
2016-05-12T02:47:40.913Z,17.09
2016-05-12T02:48:34.710Z,17.01
2016-05-12T02:49:34.790Z,16.99
2016-05-12T02:50:37.780Z,17.01
2016-05-12T02:51:37.721Z,17.04
2016-05-12T02:52:34.502Z,16.99
2016-05-12T02:53:34.488Z,16.97
2016-05-12T02:54:37.571Z,16.95
2016-05-12T02:55:34.509Z,16.98
2016-05-12T02:56:34.465Z,16.94
2016-05-12T02:57:37.454Z,16.91
2016-05-12T02:58:37.380Z,16.97
2016-05-12T02:59:34.162Z,16.99
2016-05-12T03:00:34.304Z,16.89
2016-05-12T03:01:37.965Z,16.86
2016-05-12T03:02:37.234Z,16.95
2016-05-12T03:03:34.140Z,16.84
2016-05-12T03:04:36.939Z,16.87
2016-05-12T03:05:37.070Z,16.79
2016-05-12T03:06:37.008Z,16.84
2016-05-12T03:07:34.479Z,16.84
2016-05-12T03:08:33.903Z,16.86
2016-05-12T03:09:33.875Z,16.83
2016-05-12T03:10:39.709Z,16.8
2016-05-12T03:11:37.022Z,16.82
2016-05-12T03:12:39.730Z,16.8
2016-05-12T03:13:33.699Z,16.83
2016-05-12T03:14:45.516Z,16.8
2016-05-12T03:15:39.613Z,16.72
2016-05-12T03:16:36.925Z,16.82
2016-05-12T03:17:36.724Z,16.69
2016-05-12T03:18:39.324Z,16.66
2016-05-12T03:19:36.824Z,16.68
2016-05-12T03:20:33.389Z,16.79
2016-05-12T03:21:33.346Z,16.76
2016-05-12T03:22:33.254Z,16.65
2016-05-12T03:23:42.274Z,16.8
2016-05-12T03:24:39.184Z,16.69
2016-05-12T03:25:36.340Z,16.76
2016-05-12T03:26:36.062Z,16.72
2016-05-12T03:27:32.704Z,16.69
2016-05-12T03:28:36.004Z,16.66
2016-05-12T03:29:32.773Z,16.62
2016-05-12T03:30:35.900Z,16.61
2016-05-12T03:31:32.715Z,16.61
2016-05-12T03:32:32.796Z,16.59
2016-05-12T03:33:32.956Z,16.62
2016-05-12T03:34:35.708Z,16.54
2016-05-12T03:35:32.492Z,16.51
2016-05-12T03:36:32.478Z,16.49
2016-05-12T03:37:35.403Z,16.59
2016-05-12T03:38:32.703Z,16.5
2016-05-12T03:39:32.472Z,16.51
2016-05-12T03:40:35.428Z,16.44
2016-05-12T03:41:32.367Z,16.51
2016-05-12T03:42:32.338Z,16.54
2016-05-12T03:43:32.279Z,16.5
2016-05-12T03:44:32.110Z,16.43
2016-05-12T03:45:35.206Z,16.55
2016-05-12T03:46:35.537Z,16.5
2016-05-12T03:47:38.293Z,16.49
2016-05-12T03:48:32.058Z,16.51
2016-05-12T03:49:31.983Z,16.43
2016-05-12T03:50:31.938Z,16.5
2016-05-12T03:51:31.910Z,16.5
2016-05-12T03:52:32.350Z,16.57
2016-05-12T03:53:37.853Z,16.44
2016-05-12T03:54:31.605Z,16.46
2016-05-12T03:55:34.765Z,16.55
2016-05-12T03:56:37.720Z,16.58
2016-05-12T03:57:34.629Z,16.54
2016-05-12T03:58:37.601Z,16.54
2016-05-12T03:59:40.560Z,16.58
2016-05-12T04:00:37.513Z,16.55
2016-05-12T04:01:34.968Z,16.44
2016-05-12T04:02:31.377Z,16.55
2016-05-12T04:03:31.333Z,16.55
2016-05-12T04:04:34.304Z,16.55
2016-05-12T04:05:34.260Z,16.54
2016-05-12T04:06:34.201Z,16.46
2016-05-12T04:07:34.219Z,16.51
2016-05-12T04:08:37.143Z,16.62
2016-05-12T04:09:31.614Z,16.49
2016-05-12T04:10:34.148Z,16.55
2016-05-12T04:11:36.964Z,16.57
2016-05-12T04:12:31.342Z,16.57
2016-05-12T04:13:30.891Z,16.54
2016-05-12T04:14:33.847Z,16.58
2016-05-12T04:15:34.005Z,16.58
2016-05-12T04:16:34.164Z,16.61
2016-05-12T04:17:33.699Z,16.61
2016-05-12T04:18:30.654Z,16.66
2016-05-12T04:19:33.455Z,16.65
2016-05-12T04:20:30.550Z,16.59
2016-05-12T04:21:30.522Z,16.65
2016-05-12T04:22:33.462Z,16.58
2016-05-12T04:23:30.465Z,16.66
2016-05-12T04:24:36.560Z,16.55
2016-05-12T04:25:33.329Z,16.62
2016-05-12T04:26:30.457Z,16.66
2016-05-12T04:27:33.273Z,16.59
2016-05-12T04:28:33.056Z,16.55
2016-05-12T04:29:30.184Z,16.61
2016-05-12T04:30:30.093Z,16.5
2016-05-12T04:31:30.674Z,16.49
2016-05-12T04:32:30.192Z,16.62
2016-05-12T04:33:30.148Z,16.61
2016-05-12T04:34:29.932Z,16.61
2016-05-12T04:35:29.903Z,16.59
2016-05-12T04:36:32.953Z,16.61
2016-05-12T04:37:35.814Z,16.69
2016-05-12T04:38:32.724Z,16.59
2016-05-12T04:39:29.665Z,16.72
2016-05-12T04:40:29.620Z,16.66
2016-05-12T04:41:32.450Z,16.66
2016-05-12T04:42:35.453Z,16.57
2016-05-12T04:43:29.486Z,16.65
2016-05-12T04:44:29.147Z,16.69
2016-05-12T04:45:35.415Z,16.66
2016-05-12T04:46:29.683Z,16.69
2016-05-12T04:47:29.280Z,16.65
2016-05-12T04:48:29.266Z,16.66
2016-05-12T04:49:29.191Z,16.66
2016-05-12T04:50:32.365Z,16.65
2016-05-12T04:51:32.134Z,16.66
2016-05-12T04:52:35.605Z,16.72
2016-05-12T04:53:29.030Z,16.62
2016-05-12T04:54:28.970Z,16.69
2016-05-12T04:55:32.191Z,16.66
2016-05-12T04:56:28.882Z,16.76
2016-05-12T04:57:34.838Z,16.76
2016-05-12T04:58:32.012Z,16.76
2016-05-12T04:59:28.734Z,16.72
2016-05-12T05:00:29.408Z,16.79
2016-05-12T05:01:28.770Z,16.68
2016-05-12T05:02:31.429Z,16.77
2016-05-12T05:03:31.556Z,16.65
2016-05-12T05:04:31.341Z,16.76
2016-05-12T05:05:28.453Z,16.82
2016-05-12T05:06:31.643Z,16.8
2016-05-12T05:07:28.349Z,16.83
2016-05-12T05:08:31.320Z,16.84
2016-05-12T05:09:31.292Z,16.86
2016-05-12T05:10:31.247Z,16.92
2016-05-12T05:11:28.594Z,16.91
2016-05-12T05:12:31.425Z,16.94
2016-05-12T05:13:28.193Z,17.01
2016-05-12T05:14:28.320Z,17.01
2016-05-12T05:15:27.995Z,16.98
2016-05-12T05:16:28.154Z,16.95
2016-05-12T05:17:27.891Z,17.01
2016-05-12T05:18:30.863Z,16.99
2016-05-12T05:19:27.663Z,16.97
2016-05-12T05:20:27.618Z,17.05
2016-05-12T05:21:27.918Z,17.04
2016-05-12T05:22:30.671Z,17.09
2016-05-12T05:23:27.626Z,17.09
2016-05-12T05:24:30.567Z,17.12
2016-05-12T05:25:30.522Z,17.19
2016-05-12T05:26:30.682Z,17.2
2016-05-12T05:27:30.434Z,17.09
2016-05-12T05:28:33.827Z,17.16
2016-05-12T05:29:27.345Z,17.16
2016-05-12T05:30:30.160Z,17.22
2016-05-12T05:31:27.241Z,17.2
2016-05-12T05:32:30.198Z,17.14
2016-05-12T05:33:26.996Z,17.16
2016-05-12T05:34:26.953Z,17.24
2016-05-12T05:35:30.096Z,17.23
2016-05-12T05:36:30.208Z,17.2
2016-05-12T05:37:27.164Z,17.19
2016-05-12T05:38:32.947Z,17.27
2016-05-12T05:39:29.935Z,17.27
2016-05-12T05:40:27.032Z,17.31
2016-05-12T05:41:29.847Z,17.27
2016-05-12T05:42:29.725Z,17.27
2016-05-12T05:43:29.680Z,17.32
2016-05-12T05:44:29.635Z,17.35
2016-05-12T05:45:26.904Z,17.38
2016-05-12T05:46:26.422Z,17.35
2016-05-12T05:47:26.488Z,17.41
2016-05-12T05:48:26.491Z,17.49
2016-05-12T05:49:26.539Z,17.39
2016-05-12T05:50:26.574Z,17.54
2016-05-12T05:51:26.186Z,17.41
2016-05-12T05:52:26.266Z,17.47
2016-05-12T05:53:26.222Z,17.54
2016-05-12T05:54:29.177Z,17.56
2016-05-12T05:55:25.977Z,17.56
2016-05-12T05:56:25.934Z,17.54
2016-05-12T05:57:32.046Z,17.65
2016-05-12T05:58:32.220Z,17.65
2016-05-12T05:59:28.957Z,17.71
2016-05-12T06:00:25.976Z,17.78
2016-05-12T06:01:26.182Z,17.78
2016-05-12T06:02:25.809Z,17.8
2016-05-12T06:03:25.781Z,17.86
2016-05-12T06:04:28.721Z,17.87
2016-05-12T06:05:25.677Z,17.93
2016-05-12T06:06:28.742Z,17.94
2016-05-12T06:07:31.995Z,17.95
2016-05-12T06:08:25.528Z,17.91
2016-05-12T06:09:25.515Z,17.95
2016-05-12T06:10:25.283Z,18.05
2016-05-12T06:11:28.443Z,18.12
2016-05-12T06:12:25.320Z,18.11
2016-05-12T06:13:27.979Z,18.11
2016-05-12T06:14:28.653Z,18.18
2016-05-12T06:15:31.047Z,18.13
2016-05-12T06:16:28.737Z,18.28
2016-05-12T06:17:28.162Z,18.34
2016-05-12T06:18:28.086Z,18.24
2016-05-12T06:19:28.245Z,18.27
2016-05-12T06:20:24.967Z,18.34
2016-05-12T06:21:30.797Z,18.36
2016-05-12T06:22:34.113Z,18.39
2016-05-12T06:23:24.835Z,18.42
2016-05-12T06:24:24.805Z,18.48
2016-05-12T06:25:27.793Z,18.45
2016-05-12T06:26:27.921Z,18.53
2016-05-12T06:27:24.658Z,18.53
2016-05-12T06:28:27.816Z,18.64
2016-05-12T06:29:27.413Z,18.66
2016-05-12T06:30:27.525Z,18.66
2016-05-12T06:31:25.309Z,18.7
2016-05-12T06:32:27.452Z,18.61
2016-05-12T06:33:24.376Z,18.7
2016-05-12T06:34:27.333Z,18.64
2016-05-12T06:35:24.148Z,18.64
2016-05-12T06:36:24.603Z,18.79
2016-05-12T06:37:24.232Z,18.68
2016-05-12T06:38:30.187Z,18.81
2016-05-12T06:39:30.143Z,18.85
2016-05-12T06:40:35.943Z,18.92
2016-05-12T06:41:24.227Z,18.94
2016-05-12T06:42:30.073Z,18.89
2016-05-12T06:43:26.920Z,18.96
2016-05-12T06:44:23.922Z,18.92
2016-05-12T06:45:26.862Z,19.07
2016-05-12T06:46:23.506Z,19.16
2016-05-12T06:47:24.180Z,19.17
2016-05-12T06:48:23.730Z,19.19
2016-05-12T06:49:26.700Z,19.2
2016-05-12T06:50:26.684Z,19.15
2016-05-12T06:51:26.777Z,19.16
2016-05-12T06:52:26.806Z,19.22
2016-05-12T06:53:26.821Z,19.23
2016-05-12T06:54:23.633Z,19.23
2016-05-12T06:55:26.635Z,19.19
2016-05-12T06:56:24.310Z,19.27
2016-05-12T06:57:23.765Z,19.3
2016-05-12T06:58:23.751Z,19.2
2016-05-12T06:59:23.332Z,19.24
2016-05-12T07:00:23.465Z,19.32
2016-05-12T07:01:23.318Z,19.34
2016-05-12T07:02:29.403Z,19.41
2016-05-12T07:03:23.177Z,19.39
2016-05-12T07:04:29.372Z,19.44
2016-05-12T07:05:26.268Z,19.44
2016-05-12T07:06:23.444Z,19.48
2016-05-12T07:07:26.184Z,19.48
2016-05-12T07:08:26.000Z,19.49
2016-05-12T07:09:26.521Z,19.53
2016-05-12T07:10:26.087Z,19.6
2016-05-12T07:11:23.247Z,19.64
2016-05-12T07:12:25.953Z,19.75
2016-05-12T07:13:25.815Z,19.7
2016-05-12T07:14:25.725Z,19.7
2016-05-12T07:15:25.822Z,19.75
2016-05-12T07:16:26.091Z,19.71
2016-05-12T07:17:25.641Z,19.74
2016-05-12T07:18:23.066Z,19.74
2016-05-12T07:19:27.334Z,19.85
2016-05-12T07:20:22.603Z,19.81
2016-05-12T07:21:22.558Z,19.84
2016-05-12T07:22:22.577Z,19.9
2016-05-12T07:23:25.330Z,19.92
2016-05-12T07:24:28.458Z,19.92
2016-05-12T07:25:22.398Z,19.92
2016-05-12T07:26:22.353Z,19.94
2016-05-12T07:27:25.324Z,20.04
2016-05-12T07:28:22.172Z,20.08
2016-05-12T07:29:25.033Z,20.08
2016-05-12T07:30:22.380Z,20.11
2016-05-12T07:31:22.336Z,20.07
2016-05-12T07:32:22.057Z,20.12
2016-05-12T07:33:22.091Z,20.19
2016-05-12T07:34:22.031Z,20.26
2016-05-12T07:35:22.158Z,20.27
2016-05-12T07:36:21.911Z,20.24
2016-05-12T07:37:21.852Z,20.26
2016-05-12T07:38:28.010Z,20.32
2016-05-12T07:39:21.763Z,20.32
2016-05-12T07:40:21.782Z,20.3
2016-05-12T07:41:24.675Z,20.27
2016-05-12T07:42:21.881Z,20.26
2016-05-12T07:43:24.415Z,20.29
2016-05-12T07:44:24.417Z,20.22
2016-05-12T07:45:24.530Z,20.27
2016-05-12T07:46:21.313Z,20.39
2016-05-12T07:47:27.613Z,20.39
2016-05-12T07:48:21.053Z,20.36
2016-05-12T07:49:21.321Z,20.36
2016-05-12T07:50:27.340Z,20.36
2016-05-12T07:51:21.217Z,20.39
2016-05-12T07:52:21.580Z,20.58
2016-05-12T07:53:21.129Z,20.53
2016-05-12T07:54:21.289Z,20.73
2016-05-12T07:55:21.291Z,20.78
2016-05-12T07:56:21.840Z,20.9
2016-05-12T07:57:20.843Z,20.95
2016-05-12T07:58:23.939Z,21
2016-05-12T07:59:21.364Z,20.96
2016-05-12T08:00:23.835Z,20.98
2016-05-12T08:01:24.994Z,21
2016-05-12T08:02:23.778Z,20.98
2016-05-12T08:03:20.688Z,21.04
2016-05-12T08:04:20.705Z,21.07
2016-05-12T08:05:20.474Z,21.13
2016-05-12T08:06:32.414Z,21.13
2016-05-12T08:07:23.480Z,21.22
2016-05-12T08:08:20.794Z,21.22
2016-05-12T08:09:20.406Z,21.19
2016-05-12T08:10:20.378Z,21.22
2016-05-12T08:11:23.194Z,21.26
2016-05-12T08:12:23.305Z,21.25
2016-05-12T08:13:20.308Z,21.26
2016-05-12T08:14:26.248Z,21.29
2016-05-12T08:15:23.016Z,21.29
2016-05-12T08:16:23.129Z,21.33
2016-05-12T08:17:19.928Z,21.32
2016-05-12T08:18:23.041Z,21.4
2016-05-12T08:19:20.043Z,21.4
2016-05-12T08:20:22.951Z,21.51
2016-05-12T08:21:22.893Z,21.48
2016-05-12T08:22:23.067Z,21.56
2016-05-12T08:23:23.006Z,21.58
2016-05-12T08:24:22.884Z,21.56
2016-05-12T08:25:19.731Z,21.6
2016-05-12T08:26:19.733Z,21.56
2016-05-12T08:27:19.642Z,21.72
2016-05-12T08:28:24.348Z,21.68
2016-05-12T08:29:19.569Z,21.68
2016-05-12T08:30:22.916Z,21.7
2016-05-12T08:31:19.497Z,21.7
2016-05-12T08:32:22.437Z,21.72
2016-05-12T08:33:19.628Z,21.77
2016-05-12T08:34:19.350Z,21.69
2016-05-12T08:35:19.320Z,21.69
2016-05-12T08:36:22.245Z,21.68
2016-05-12T08:37:19.216Z,21.54
2016-05-12T08:38:22.313Z,21.6
2016-05-12T08:39:19.347Z,21.6
2016-05-12T08:40:19.068Z,21.7
2016-05-12T08:41:19.055Z,21.65
2016-05-12T08:42:22.010Z,21.77
2016-05-12T08:43:21.951Z,21.85
2016-05-12T08:44:19.391Z,21.85
2016-05-12T08:45:18.863Z,21.72
2016-05-12T08:46:22.037Z,21.77
2016-05-12T08:47:28.181Z,21.69
2016-05-12T08:48:21.809Z,21.72
2016-05-12T08:49:18.779Z,21.88
2016-05-12T08:50:21.720Z,21.83
2016-05-12T08:51:21.488Z,21.81
2016-05-12T08:52:24.569Z,21.94
2016-05-12T08:53:24.618Z,21.91
2016-05-12T08:54:24.528Z,21.83
2016-05-12T08:55:18.873Z,21.83
2016-05-12T08:56:24.409Z,21.78
2016-05-12T08:57:18.629Z,21.72
2016-05-12T08:58:18.522Z,21.68
2016-05-12T08:59:18.604Z,21.78
2016-05-12T09:00:18.512Z,21.72
2016-05-12T09:01:21.061Z,21.74
2016-05-12T09:02:19.112Z,21.7
2016-05-12T09:03:17.974Z,21.81
2016-05-12T09:04:21.039Z,21.88
2016-05-12T09:05:17.994Z,21.81
2016-05-12T09:06:17.997Z,22.03
2016-05-12T09:07:20.766Z,22.03
2016-05-12T09:08:18.299Z,22.08
2016-05-12T09:09:17.818Z,22.18
2016-05-12T09:10:17.993Z,22.23
2016-05-12T09:11:17.730Z,22.23
2016-05-12T09:12:26.607Z,22.3
2016-05-12T09:13:29.751Z,22.3
2016-05-12T09:14:23.674Z,22.28
2016-05-12T09:15:20.569Z,22.34
2016-05-12T09:16:17.962Z,22.37
2016-05-12T09:17:20.777Z,22.33
2016-05-12T09:18:23.483Z,22.36
2016-05-12T09:19:17.642Z,22.46
2016-05-12T09:20:23.348Z,22.37
2016-05-12T09:21:20.413Z,22.37
2016-05-12T09:22:20.650Z,22.41
2016-05-12T09:23:17.449Z,22.38
2016-05-12T09:24:17.186Z,22.38
2016-05-12T09:25:17.204Z,22.37
2016-05-12T09:26:17.332Z,22.34
2016-05-12T09:27:21.522Z,22.37
2016-05-12T09:28:19.994Z,22.38
2016-05-12T09:29:20.169Z,22.43
2016-05-12T09:31:20.783Z,22.49
2016-05-12T09:32:16.833Z,22.53
2016-05-12T09:33:16.820Z,22.56
2016-05-12T09:34:16.728Z,22.63
2016-05-12T09:35:19.700Z,22.68
2016-05-12T09:36:19.875Z,22.67
2016-05-12T09:37:16.472Z,22.7
2016-05-12T09:38:19.614Z,22.8
2016-05-12T09:39:19.821Z,22.8
2016-05-12T09:40:16.714Z,22.71
2016-05-12T09:41:16.294Z,22.7
2016-05-12T09:42:16.313Z,22.76
2016-05-12T09:43:22.690Z,22.83
2016-05-12T09:44:19.318Z,22.88
2016-05-12T09:45:16.493Z,22.96
2016-05-12T09:46:16.370Z,22.96
2016-05-12T09:47:19.374Z,22.91
2016-05-12T09:48:16.157Z,22.92
2016-05-12T09:49:16.129Z,22.93
2016-05-12T09:50:16.085Z,22.95
2016-05-12T09:51:19.228Z,22.93
2016-05-12T09:52:18.824Z,22.93
2016-05-12T09:53:16.123Z,22.95
2016-05-12T09:54:16.079Z,22.93
2016-05-12T09:55:15.879Z,22.88
2016-05-12T09:56:15.835Z,22.91
2016-05-12T09:57:18.587Z,22.93
2016-05-12T09:58:18.575Z,22.96
2016-05-12T09:59:15.655Z,22.98
2016-05-12T10:00:16.220Z,22.95
2016-05-12T10:01:15.473Z,23.1
2016-05-12T10:02:15.538Z,23.14
2016-05-12T10:03:15.698Z,23.17
2016-05-12T10:04:15.310Z,23.17
2016-05-12T10:05:15.453Z,23.13
2016-05-12T10:06:18.409Z,23.11
2016-05-12T10:07:15.583Z,23.13
2016-05-12T10:08:15.227Z,23.17
2016-05-12T10:09:15.261Z,23.21
2016-05-12T10:10:15.419Z,23.25
2016-05-12T10:11:15.235Z,23.4
2016-05-12T10:12:18.143Z,23.4
2016-05-12T10:13:18.193Z,23.36
2016-05-12T10:14:15.086Z,23.36
2016-05-12T10:15:15.010Z,23.34
2016-05-12T10:16:18.154Z,23.28
2016-05-12T10:17:14.673Z,23.4
2016-05-12T10:18:14.941Z,23.34
2016-05-12T10:19:17.882Z,23.28
2016-05-12T10:20:14.774Z,23.36
2016-05-12T10:21:17.730Z,23.39
2016-05-12T10:22:17.607Z,23.28
2016-05-12T10:23:14.486Z,23.48
2016-05-12T10:24:15.067Z,23.55
2016-05-12T10:25:14.648Z,23.55
2016-05-12T10:26:20.572Z,23.59
2016-05-12T10:27:14.559Z,23.76
2016-05-12T10:28:14.546Z,23.64
2016-05-12T10:29:15.251Z,23.66
2016-05-12T10:30:14.442Z,23.49
2016-05-12T10:31:14.694Z,23.64
2016-05-12T10:32:14.666Z,23.73
2016-05-12T10:33:13.920Z,23.82
2016-05-12T10:34:17.436Z,23.86
2016-05-12T10:35:13.986Z,23.79
2016-05-12T10:36:13.989Z,23.88
2016-05-12T10:37:14.883Z,23.88
2016-05-12T10:38:14.058Z,23.99
2016-05-12T10:39:17.013Z,23.89
2016-05-12T10:40:14.328Z,23.94
2016-05-12T10:41:13.955Z,23.91
2016-05-12T10:42:19.849Z,24.07
2016-05-12T10:43:16.805Z,24.28
2016-05-12T10:44:13.746Z,24.48
2016-05-12T10:45:13.607Z,24.53
2016-05-12T10:46:13.563Z,24.56
2016-05-12T10:47:14.332Z,24.68
2016-05-12T10:48:13.647Z,24.84
2016-05-12T10:49:16.759Z,24.86
2016-05-12T10:50:13.511Z,25.07
2016-05-12T10:51:16.296Z,25.16
2016-05-12T10:52:13.611Z,25.18
2016-05-12T10:53:16.895Z,25.21
2016-05-12T10:54:13.538Z,25.3
2016-05-12T10:55:13.228Z,25.39
2016-05-12T10:56:19.262Z,25.51
2016-05-12T10:57:13.421Z,25.61
2016-05-12T10:58:16.596Z,25.78
2016-05-12T10:59:16.504Z,25.8
2016-05-12T11:00:14.209Z,25.81
2016-05-12T11:01:13.369Z,25.77
2016-05-12T11:02:13.966Z,25.77
2016-05-12T11:03:15.983Z,25.78
2016-05-12T11:04:12.767Z,25.8
2016-05-12T11:05:12.895Z,25.83
2016-05-12T11:06:15.773Z,25.73
2016-05-12T11:07:15.839Z,25.67
2016-05-12T11:08:15.748Z,25.49
2016-05-12T11:09:12.702Z,25.41
2016-05-12T11:10:12.675Z,25.26
2016-05-12T11:11:12.959Z,25.3
2016-05-12T11:12:13.180Z,25.37
2016-05-12T11:13:12.542Z,25.25
2016-05-12T11:14:12.435Z,25.21
2016-05-12T11:15:12.485Z,25.26
2016-05-12T11:16:12.503Z,25.24
2016-05-12T11:17:12.880Z,25.33
2016-05-12T11:18:12.352Z,25.39
2016-05-12T11:19:12.480Z,25.31
2016-05-12T11:20:12.295Z,25.31
2016-05-12T11:21:12.470Z,25.22
2016-05-12T11:22:12.785Z,25.18
2016-05-12T11:23:12.115Z,25.18
2016-05-12T11:24:12.087Z,25.18
2016-05-12T11:25:11.934Z,25.18
2016-05-12T11:26:12.640Z,25.18
2016-05-12T11:27:15.001Z,25.18
2016-05-12T11:28:11.770Z,25.22
2016-05-12T11:29:11.945Z,25.31
2016-05-12T11:30:11.885Z,25.3
2016-05-12T11:31:11.793Z,25.36
2016-05-12T11:32:11.967Z,25.37
2016-05-12T11:33:14.737Z,25.39
2016-05-12T11:34:11.676Z,25.43
2016-05-12T11:35:11.850Z,25.31
2016-05-12T11:36:14.604Z,25.43
2016-05-12T11:37:11.403Z,25.41
2016-05-12T11:38:14.531Z,25.54
2016-05-12T11:39:11.549Z,25.61
2016-05-12T11:40:11.443Z,25.67
2016-05-12T11:41:11.867Z,25.77
2016-05-12T11:42:14.479Z,25.8
2016-05-12T11:43:11.608Z,25.88
2016-05-12T11:44:14.297Z,25.96
2016-05-12T11:45:11.472Z,26.08
2016-05-12T11:46:11.194Z,26.07
2016-05-12T11:47:14.243Z,26.04
2016-05-12T11:48:14.105Z,26.07
2016-05-12T11:49:14.357Z,26.11
2016-05-12T11:50:17.049Z,26.15
2016-05-12T11:51:11.004Z,26.22
2016-05-12T11:52:10.896Z,26.15
2016-05-12T11:53:10.931Z,26.01
2016-05-12T11:54:13.746Z,25.93
2016-05-12T11:55:11.452Z,26.03
2016-05-12T11:56:10.845Z,26.1
2016-05-12T11:57:10.754Z,26.1
2016-05-12T11:58:10.726Z,26.11
2016-05-12T11:59:10.665Z,26.13
2016-05-12T12:00:10.809Z,26.06
2016-05-12T12:01:10.578Z,26.23
2016-05-12T12:02:10.768Z,26.31
2016-05-12T12:03:11.021Z,26.31
2016-05-12T12:04:10.445Z,26.42
2016-05-12T12:05:10.416Z,26.42
2016-05-12T12:06:10.700Z,26.29
2016-05-12T12:07:13.547Z,26.41
2016-05-12T12:08:10.799Z,26.52
2016-05-12T12:09:13.334Z,26.53
2016-05-12T12:10:10.070Z,26.6
2016-05-12T12:11:10.182Z,26.53
2016-05-12T12:12:13.325Z,26.53
2016-05-12T12:13:10.000Z,26.61
2016-05-12T12:14:10.049Z,26.64
2016-05-12T12:15:10.318Z,26.67
2016-05-12T12:16:09.852Z,26.71
2016-05-12T12:17:13.011Z,26.83
2016-05-12T12:18:09.952Z,26.83
2016-05-12T12:19:12.751Z,26.88
2016-05-12T12:20:09.754Z,27.08
2016-05-12T12:21:09.787Z,27.1
2016-05-12T12:22:12.556Z,27.19
2016-05-12T12:23:09.668Z,27.18
2016-05-12T12:24:09.624Z,27.3
2016-05-12T12:25:12.813Z,27.3
2016-05-12T12:26:09.582Z,27.28
2016-05-12T12:27:09.523Z,27.3
2016-05-12T12:28:09.571Z,27.41
2016-05-12T12:29:09.496Z,27.34
2016-05-12T12:30:09.451Z,27.28
2016-05-12T12:31:09.376Z,27.3
2016-05-12T12:32:12.583Z,27.43
2016-05-12T12:33:09.289Z,27.44
2016-05-12T12:34:09.322Z,27.48
2016-05-12T12:35:09.387Z,27.47
2016-05-12T12:36:09.218Z,27.45
2016-05-12T12:37:09.112Z,27.66
2016-05-12T12:38:09.474Z,27.72
2016-05-12T12:39:09.039Z,27.71
2016-05-12T12:40:08.870Z,27.82
2016-05-12T12:41:09.029Z,27.83
2016-05-12T12:42:08.906Z,27.79
2016-05-12T12:43:09.081Z,27.71
2016-05-12T12:44:08.849Z,27.75
2016-05-12T12:45:08.789Z,27.76
2016-05-12T12:46:08.761Z,27.82
2016-05-12T12:47:08.732Z,27.93
2016-05-12T12:48:14.688Z,27.98
2016-05-12T12:49:08.643Z,28
2016-05-12T12:50:08.788Z,28.04
2016-05-12T12:51:08.555Z,28.03
2016-05-12T12:52:08.902Z,28.19
2016-05-12T12:53:14.718Z,28.16
2016-05-12T12:54:08.501Z,28.09
2016-05-12T12:55:08.410Z,28.12
2016-05-12T12:56:11.335Z,28.04